Time;durP1;ratioP1;P1;durP2;ratioP2;P2;SDS_P1;SDS_P2;PMS_P1;PMS_P2;Temp;Humidity;BMP_temperature;BMP_pressure;BME280_temperature;BME280_humidity;BME280_pressure;Samples;Min_cycle;Max_cycle;Signal;HPM_P1;HPM_P2
2022/05/04 00:00:13;;;;;;;14.27;10.82;;;;;;;12.80;84.40;96196.22;4985856;28;20057;-77
2022/05/04 00:02:41;;;;;;;12.68;10.05;;;;;;;12.85;84.63;96206.94;4985287;28;20042;-77
2022/05/04 00:05:09;;;;;;;13.98;10.43;;;;;;;12.88;84.55;96208.19;4985861;28;20057;-77
2022/05/04 00:07:35;;;;;;;13.77;10.52;;;;;;;12.92;84.39;96200.91;4985221;28;20061;-76
2022/05/04 00:10:02;;;;;;;11.57;9.00;;;;;;;12.96;84.34;96202.66;4985514;28;20046;-75
2022/05/04 00:12:29;;;;;;;12.98;10.02;;;;;;;13.03;84.22;96213.03;4985384;28;20053;-76
2022/05/04 00:14:56;;;;;;;11.07;9.65;;;;;;;13.09;84.05;96208.16;4984766;28;20489;-76
2022/05/04 00:17:23;;;;;;;13.07;10.25;;;;;;;13.07;84.19;96203.03;4985560;28;20047;-76
2022/05/04 00:19:50;;;;;;;12.52;9.80;;;;;;;13.07;84.57;96200.28;4985388;28;20050;-76
2022/05/04 00:22:20;;;;;;;12.43;9.82;;;;;;;13.15;84.50;96202.13;4985838;28;20043;-76
2022/05/04 00:24:47;;;;;;;12.88;9.93;;;;;;;13.21;84.91;96205.47;4985184;28;20052;-77
2022/05/04 00:27:15;;;;;;;13.10;10.20;;;;;;;13.20;84.75;96201.91;4985704;28;20049;-77
2022/05/04 00:29:41;;;;;;;12.55;10.00;;;;;;;13.23;84.92;96197.75;4985058;28;20051;-76
2022/05/04 00:32:10;;;;;;;13.00;10.75;;;;;;;13.21;84.51;96194.53;4985765;28;20050;-76
2022/05/04 00:34:37;;;;;;;12.55;10.48;;;;;;;13.20;84.44;96187.44;4985279;28;20058;-77
2022/05/04 00:37:03;;;;;;;12.07;10.25;;;;;;;13.23;84.62;96190.31;4985367;28;20051;-76
2022/05/04 00:39:30;;;;;;;12.38;10.07;;;;;;;13.29;84.73;96193.66;4985693;28;20050;-77
2022/05/04 00:42:07;;;;;;;12.68;10.43;;;;;;;13.29;84.40;96191.69;4985411;28;20050;-76
2022/05/04 00:44:34;;;;;;;15.65;10.73;;;;;;;13.27;84.77;96194.00;4985388;28;20042;-76
2022/05/04 00:47:00;;;;;;;13.50;10.27;;;;;;;13.26;84.89;96195.13;4985194;28;20351;-77
2022/05/04 00:49:28;;;;;;;13.18;9.90;;;;;;;13.29;84.73;96191.69;4985686;28;20042;-76
2022/05/04 00:51:55;;;;;;;12.43;10.00;;;;;;;13.31;84.68;96197.66;4985150;28;20049;-77
2022/05/04 00:54:21;;;;;;;14.55;11.10;;;;;;;13.31;84.88;96194.91;4985440;28;20062;-76
2022/05/04 00:56:48;;;;;;;13.20;10.07;;;;;;;13.31;85.19;96194.91;4984664;28;20053;-77
2022/05/04 00:59:15;;;;;;;12.75;9.95;;;;;;;13.31;85.08;96205.03;4985157;28;20054;-76
2022/05/04 01:01:43;;;;;;;12.48;10.23;;;;;;;13.26;84.72;96197.06;4985270;28;20087;-77
2022/05/04 01:04:09;;;;;;;13.43;10.45;;;;;;;13.25;84.73;96201.72;4984524;28;20046;-77
2022/05/04 01:06:37;;;;;;;13.32;10.18;;;;;;;13.29;84.66;96199.13;4985313;28;20053;-77
2022/05/04 01:09:05;;;;;;;12.48;10.63;;;;;;;13.31;84.57;96202.28;4986169;28;20038;-76
2022/05/04 01:11:32;;;;;;;17.88;11.70;;;;;;;13.24;84.25;96200.13;4993773;28;20058;-77
2022/05/04 01:14:00;;;;;;;13.07;10.80;;;;;;;13.21;84.55;96200.00;4992020;28;20057;-77
2022/05/04 01:16:26;;;;;;;14.10;11.20;;;;;;;13.18;84.49;96193.25;4988388;28;20050;-77
2022/05/04 01:18:53;;;;;;;13.02;11.32;;;;;;;13.20;84.77;96196.44;4989019;28;20062;-76
2022/05/04 01:21:19;;;;;;;15.15;11.00;;;;;;;13.23;84.41;96192.28;4989211;28;20058;-76
2022/05/04 01:23:47;;;;;;;11.68;9.98;;;;;;;13.23;84.45;96198.53;4989080;28;20058;-76
2022/05/04 01:26:16;;;;;;;13.02;10.43;;;;;;;13.22;84.54;96202.41;4988843;28;20061;-76
2022/05/04 01:28:43;;;;;;;12.60;10.50;;;;;;;13.25;84.16;96198.97;4989415;28;20061;-76
2022/05/04 01:31:09;;;;;;;12.20;10.07;;;;;;;13.24;84.31;96200.13;4988532;28;20522;-75
2022/05/04 01:33:36;;;;;;;13.02;10.25;;;;;;;13.26;84.38;96206.06;4989522;28;20049;-76
2022/05/04 01:36:03;;;;;;;11.27;9.32;;;;;;;13.28;84.15;96203.00;4987648;28;20050;-77
2022/05/04 01:38:29;;;;;;;13.80;9.98;;;;;;;13.29;84.29;96202.66;4989320;28;20447;-76
2022/05/04 01:40:57;;;;;;;10.38;8.43;;;;;;;13.29;83.93;96194.44;4988117;28;20053;-77
2022/05/04 01:43:23;;;;;;;10.75;8.85;;;;;;;13.25;83.98;96196.25;4988520;28;20054;-77
2022/05/04 01:45:51;;;;;;;12.73;9.95;;;;;;;13.25;83.78;96196.25;4987195;28;20046;-77
2022/05/04 01:48:18;;;;;;;11.65;9.90;;;;;;;13.23;83.51;96203.22;4987443;28;20057;-76
2022/05/04 01:50:44;;;;;;;11.68;9.00;;;;;;;13.19;83.70;96197.56;4988324;28;20046;-76
2022/05/04 01:53:11;;;;;;;19.70;10.48;;;;;;;13.21;83.56;96194.53;4988419;28;20058;-77
2022/05/04 01:55:37;;;;;;;11.15;9.25;;;;;;;13.20;83.50;96195.63;4989426;28;20058;-76
2022/05/04 01:58:06;;;;;;;13.52;9.05;;;;;;;13.13;83.06;96198.13;4989339;28;20047;-75
2022/05/04 02:00:35;;;;;;;11.20;9.10;;;;;;;13.14;83.35;96205.19;4991120;28;20141;-76
2022/05/04 02:03:01;;;;;;;10.25;8.60;;;;;;;13.16;83.34;96202.94;4989241;28;20134;-76
2022/05/04 02:05:28;;;;;;;9.23;7.80;;;;;;;13.15;83.32;96195.84;4990053;28;20050;-77
2022/05/04 02:07:55;;;;;;;8.77;7.82;;;;;;;13.18;83.13;96200.66;4988464;28;20054;-77
2022/05/04 02:10:21;;;;;;;10.85;8.23;;;;;;;13.22;83.38;96196.94;4988429;28;20070;-76
2022/05/04 02:12:48;;;;;;;9.23;7.63;;;;;;;13.24;82.91;96194.66;4988589;28;20046;-75
2022/05/04 02:15:17;;;;;;;8.20;6.95;;;;;;;13.25;82.31;96196.25;4987505;28;20047;-76
2022/05/04 02:17:45;;;;;;;10.68;7.80;;;;;;;13.22;82.54;96191.47;4989361;28;20056;-76
2022/05/04 02:20:11;;;;;;;10.43;8.13;;;;;;;13.22;82.73;96191.47;4988420;28;20061;-77
2022/05/04 02:22:38;;;;;;;11.23;7.88;;;;;;;13.22;83.02;96196.94;4988172;28;20042;-76
2022/05/04 02:25:05;;;;;;;10.20;8.48;;;;;;;13.22;83.17;96196.94;4987224;28;20045;-76
2022/05/04 02:27:32;;;;;;;9.38;7.57;;;;;;;13.21;83.35;96197.25;4988716;28;20552;-76
2022/05/04 02:29:58;;;;;;;13.27;8.55;;;;;;;13.16;83.05;96197.47;4987472;28;20053;-76
2022/05/04 02:32:26;;;;;;;11.13;8.52;;;;;;;13.13;82.98;96193.47;4987940;28;20050;-76
2022/05/04 02:37:56;;;;;;;10.32;8.18;;;;;;;13.06;83.01;96198.69;4987676;28;20825;-77
2022/05/04 02:40:24;;;;;;;10.77;8.68;;;;;;;12.98;83.11;96199.56;4986914;28;20134;-76
2022/05/04 02:42:50;;;;;;;11.02;8.43;;;;;;;12.93;83.32;96197.03;4987084;28;20045;-77
2022/05/04 02:45:17;;;;;;;10.82;8.60;;;;;;;12.90;83.42;96197.75;4986645;28;20046;-76
2022/05/04 02:47:44;;;;;;;12.02;8.60;;;;;;;12.86;83.45;96199.53;4987076;28;20256;-76
2022/05/04 02:50:11;;;;;;;11.82;8.90;;;;;;;12.81;83.56;96200.53;4987174;28;20519;-76
2022/05/04 02:52:38;;;;;;;12.00;7.97;;;;;;;12.84;83.65;96196.31;4987555;28;20046;-76
2022/05/04 02:55:05;;;;;;;10.02;7.55;;;;;;;12.83;83.41;96189.28;4987847;28;20394;-76
2022/05/04 02:57:31;;;;;;;8.95;7.65;;;;;;;12.78;83.23;96199.25;4988333;28;20053;-76
2022/05/04 02:59:58;;;;;;;9.75;7.20;;;;;;;12.76;83.18;96198.81;4987835;28;20046;-76
2022/05/04 03:02:30;;;;;;;8.98;7.65;;;;;;;12.70;82.96;96196.63;4987047;28;20050;-76
2022/05/04 03:05:00;;;;;;;10.18;8.00;;;;;;;12.61;83.29;96196.69;4986947;28;20418;-76
2022/05/04 03:07:27;;;;;;;9.50;7.90;;;;;;;12.61;83.09;96204.88;4988999;28;20374;-77
2022/05/04 03:09:54;;;;;;;10.52;7.93;;;;;;;12.62;83.35;96195.56;4990119;28;20053;-77
2022/05/04 03:12:21;;;;;;;12.02;8.02;;;;;;;12.57;83.23;96203.97;4989690;28;20090;-76
2022/05/04 03:14:47;;;;;;;10.38;7.70;;;;;;;12.54;83.40;96193.72;4988981;28;20058;-77
2022/05/04 03:17:14;;;;;;;11.10;8.23;;;;;;;12.46;83.58;96200.03;4986938;28;20046;-76
2022/05/04 03:19:43;;;;;;;9.23;7.47;;;;;;;12.41;83.34;96200.22;4986739;28;20048;-76
2022/05/04 03:22:11;;;;;;;9.50;7.50;;;;;;;12.38;83.50;96193.53;4986587;28;20057;-77
2022/05/04 03:24:38;;;;;;;10.18;7.80;;;;;;;12.41;83.64;96194.78;4987381;28;20057;-76
2022/05/04 03:27:07;;;;;;;12.90;7.65;;;;;;;12.39;83.92;96199.78;4986317;28;20132;-76
2022/05/04 03:29:34;;;;;;;10.90;7.35;;;;;;;12.31;83.77;96195.97;4987428;28;20093;-76
2022/05/04 03:32:01;;;;;;;11.02;7.40;;;;;;;12.29;84.19;96192.78;4986234;28;20046;-77
2022/05/04 03:34:27;;;;;;;9.63;7.60;;;;;;;12.32;84.27;96196.75;4986185;28;20046;-77
2022/05/04 03:36:55;;;;;;;11.45;7.35;;;;;;;12.35;84.00;96196.13;4985466;28;20490;-76
2022/05/04 03:39:22;;;;;;;9.07;6.90;;;;;;;12.34;83.74;96189.84;4985868;28;20062;-77
2022/05/04 03:41:49;;;;;;;9.27;6.85;;;;;;;12.34;83.25;96194.53;4985807;28;20069;-77
2022/05/04 03:44:16;;;;;;;9.82;7.47;;;;;;;12.33;83.15;96199.19;4984412;28;20057;-76
2022/05/04 03:46:44;;;;;;;10.05;7.80;;;;;;;12.25;82.94;96191.84;4986087;28;20074;-76
2022/05/04 03:49:11;;;;;;;9.82;7.03;;;;;;;12.16;83.38;96194.66;4985927;28;20062;-77
2022/05/04 03:51:38;;;;;;;9.38;7.28;;;;;;;12.13;83.67;96199.97;4985986;28;20413;-76
2022/05/04 03:54:05;;;;;;;9.15;7.40;;;;;;;12.21;83.49;96197.16;4985728;28;20413;-75
2022/05/04 03:56:33;;;;;;;12.55;7.90;;;;;;;12.24;83.00;96201.97;4986496;28;20046;-76
2022/05/04 03:59:00;;;;;;;10.65;6.75;;;;;;;12.27;83.16;96200.53;4985712;28;20426;-76
2022/05/04 04:01:26;;;;;;;13.38;8.25;;;;;;;12.24;83.41;96204.69;4986148;28;20049;-77
2022/05/04 04:03:53;;;;;;;9.02;7.45;;;;;;;12.24;83.51;96201.97;4985718;28;20053;-76
2022/05/04 04:06:19;;;;;;;9.13;7.10;;;;;;;12.25;83.58;96203.56;4985825;28;20417;-77
2022/05/04 04:08:46;;;;;;;10.13;8.02;;;;;;;12.27;83.43;96201.31;4986247;28;20050;-76
2022/05/04 04:11:12;;;;;;;9.55;7.43;;;;;;;12.25;83.43;96202.75;4984915;28;20069;-76
2022/05/04 04:13:40;;;;;;;9.38;7.93;;;;;;;12.24;83.23;96212.88;4985174;28;20423;-76
2022/05/04 04:16:08;;;;;;;10.98;7.40;;;;;;;12.26;83.36;96207.09;4984512;28;20046;-76
2022/05/04 04:18:35;;;;;;;11.27;7.68;;;;;;;12.30;83.35;96215.41;4986225;28;20062;-77
2022/05/04 04:23:46;;;;;;;10.45;7.70;;;;;;;12.37;83.69;96215.69;4986114;28;20053;-77
2022/05/04 04:26:13;;;;;;;10.68;7.13;;;;;;;12.36;83.40;96214.09;4984862;28;20096;-76
2022/05/04 04:28:41;;;;;;;10.75;7.90;;;;;;;12.35;83.50;96212.50;4985874;28;20053;-76
2022/05/04 04:31:09;;;;;;;8.57;7.10;;;;;;;12.38;83.51;96217.31;4984855;28;20050;-77
2022/05/04 04:33:36;;;;;;;11.15;7.55;;;;;;;12.38;83.13;96217.31;4985496;28;20051;-77
2022/05/04 04:36:03;;;;;;;9.95;7.72;;;;;;;12.41;83.18;96213.88;4984976;28;20042;-76
2022/05/04 04:38:30;;;;;;;9.43;7.75;;;;;;;12.44;82.79;96224.16;4985002;28;20076;-77
2022/05/04 04:40:57;;;;;;;9.15;7.10;;;;;;;12.46;82.96;96219.16;4985877;28;20050;-77
2022/05/04 04:43:24;;;;;;;11.18;7.72;;;;;;;12.51;82.99;96217.03;4984605;28;20054;-77
2022/05/04 04:45:52;;;;;;;10.63;7.57;;;;;;;12.53;82.68;96213.97;4986765;28;20498;-75
2022/05/04 04:48:19;;;;;;;9.07;7.05;;;;;;;12.56;82.69;96217.97;4988193;28;20053;-76
2022/05/04 04:50:45;;;;;;;11.57;9.90;;;;;;;12.54;82.43;96221.03;4989658;28;20054;-76
2022/05/04 04:53:12;;;;;;;12.40;7.38;;;;;;;12.49;82.59;96222.03;4989942;28;20050;-76
2022/05/04 04:55:41;;;;;;;11.35;8.32;;;;;;;12.49;82.86;96218.50;4989436;28;20046;-77
2022/05/04 04:58:07;;;;;;;10.57;7.40;;;;;;;12.56;82.69;96224.22;4990043;28;20050;-76
2022/05/04 05:00:34;;;;;;;10.45;7.22;;;;;;;12.61;83.04;96232.22;4990414;28;20050;-76
2022/05/04 05:03:02;;;;;;;8.52;7.13;;;;;;;12.58;82.34;96224.69;4990819;28;20070;-76
2022/05/04 05:05:29;;;;;;;7.90;6.65;;;;;;;12.64;82.27;96226.09;4990820;28;20047;-77
2022/05/04 05:07:55;;;;;;;7.68;6.22;;;;;;;12.68;82.19;96226.19;4995389;28;20065;-77
2022/05/04 05:10:22;;;;;;;11.20;6.85;;;;;;;12.70;81.83;96224.75;4995123;28;20062;-77
2022/05/04 05:12:50;;;;;;;8.85;7.13;;;;;;;12.72;82.13;96221.66;4990440;28;20055;-76
2022/05/04 05:18:03;;;;;;;8.52;6.97;;;;;;;12.69;81.48;96220.44;4989565;28;20124;-76
2022/05/04 05:20:31;;;;;;;10.25;7.00;;;;;;;12.69;81.45;96230.56;4989852;28;20038;-76
2022/05/04 05:22:57;;;;;;;9.35;7.32;;;;;;;12.70;81.74;96224.75;4988863;28;20661;-77
2022/05/04 05:25:24;;;;;;;9.25;8.02;;;;;;;12.76;82.03;96228.06;4989423;28;20046;-75
2022/05/04 05:27:51;;;;;;;13.68;7.45;;;;;;;12.82;82.09;96228.66;4988533;28;20074;-76
2022/05/04 05:30:17;;;;;;;15.43;7.78;;;;;;;12.86;82.36;96227.66;4989455;28;20069;-76
2022/05/04 05:32:44;;;;;;;8.45;7.20;;;;;;;12.86;82.07;96229.59;4989769;28;20050;-77
2022/05/04 05:35:12;;;;;;;11.38;7.78;;;;;;;12.91;82.26;96229.41;4988798;28;20046;-77
2022/05/04 05:37:38;;;;;;;11.48;8.05;;;;;;;12.93;82.31;96236.09;4988717;28;20050;-77
2022/05/04 05:40:06;;;;;;;10.40;7.43;;;;;;;13.03;82.16;96221.22;4988044;28;20646;-76
2022/05/04 05:42:35;;;;;;;10.50;7.43;;;;;;;13.04;81.49;96229.09;4988179;28;20121;-77
2022/05/04 05:45:01;;;;;;;11.32;7.22;;;;;;;13.11;81.39;96231.28;4987801;28;20141;-77
2022/05/04 05:47:28;;;;;;;13.18;7.43;;;;;;;13.11;80.65;96233.22;4989776;28;20042;-77
2022/05/04 05:49:54;;;;;;;9.70;7.45;;;;;;;13.15;80.37;96245.06;4988011;28;20050;-77
2022/05/04 05:52:22;;;;;;;8.88;6.93;;;;;;;13.17;80.33;96238.13;4988591;28;20062;-78
2022/05/04 05:54:50;;;;;;;12.88;6.95;;;;;;;13.20;79.75;96242.13;4987685;28;20421;-76
2022/05/04 05:57:17;;;;;;;10.70;6.47;;;;;;;13.23;79.87;96236.81;4987720;28;20046;-77
2022/05/04 05:59:44;;;;;;;8.70;5.97;;;;;;;13.28;79.87;96236.59;4988207;28;20061;-77
2022/05/04 06:02:10;;;;;;;10.60;6.50;;;;;;;13.31;79.79;96233.19;4987359;28;20053;-77
2022/05/04 06:04:38;;;;;;;8.32;5.88;;;;;;;13.34;79.93;96242.66;4988452;28;20046;-77
2022/05/04 06:07:05;;;;;;;8.52;6.35;;;;;;;13.38;79.90;96237.31;4987140;28;20533;-78
2022/05/04 06:09:33;;;;;;;9.73;5.75;;;;;;;13.21;78.18;96239.09;4988202;28;20092;-77
2022/05/04 06:12:00;;;;;;;8.75;6.45;;;;;;;13.28;78.55;96247.53;4987352;28;20042;-77
2022/05/04 06:14:26;;;;;;;7.75;6.10;;;;;;;13.24;77.96;96243.88;4986604;28;20045;-77
2022/05/04 06:16:53;;;;;;;9.55;7.03;;;;;;;13.36;77.99;96253.25;4987734;28;20050;-77
2022/05/04 06:19:19;;;;;;;13.38;6.90;;;;;;;13.45;78.85;96259.44;4987919;28;20042;-77
2022/05/04 06:21:46;;;;;;;9.93;6.00;;;;;;;13.47;79.28;96257.97;4988944;28;20042;-76
2022/05/04 06:24:12;;;;;;;8.25;6.22;;;;;;;13.53;78.70;96261.28;4987466;28;20050;-77
2022/05/04 06:26:40;;;;;;;8.48;6.20;;;;;;;13.52;78.64;96262.41;4988003;28;20057;-77
2022/05/04 06:29:07;;;;;;;6.95;5.47;;;;;;;13.53;78.47;96255.81;4987590;28;20046;-77
2022/05/04 06:34:17;;;;;;;6.93;5.38;;;;;;;13.57;77.08;96256.72;4986539;28;20117;-77
2022/05/04 06:36:44;;;;;;;10.07;5.28;;;;;;;13.41;76.65;96258.50;4987812;28;20054;-77
2022/05/04 06:39:12;;;;;;;6.00;5.20;;;;;;;13.42;76.96;96260.13;4986655;28;20046;-77
2022/05/04 06:41:41;;;;;;;7.88;5.70;;;;;;;13.51;76.75;96260.81;4987807;28;20510;-77
2022/05/04 06:44:08;;;;;;;7.28;5.05;;;;;;;13.56;76.62;96261.38;4985926;28;20769;-77
2022/05/04 06:46:41;;;;;;;7.40;5.13;;;;;;;13.60;76.70;96256.03;4987208;28;20117;-77
2022/05/04 06:49:08;;;;;;;;;;;;;;;13.60;76.12;96266.97;4987161;28;20097;-77
2022/05/04 06:51:35;;;;;;;7.07;5.70;;;;;;;13.58;75.39;96269.28;4987085;28;20429;-76
2022/05/04 06:54:01;;;;;;;9.57;5.50;;;;;;;13.54;75.54;96262.88;4986627;28;20046;-75
2022/05/04 06:56:28;;;;;;;7.00;4.78;;;;;;;13.52;75.41;96270.59;4984911;28;20046;-76
2022/05/04 06:58:55;;;;;;;5.70;4.72;;;;;;;13.55;75.90;96275.41;4984815;28;20038;-76
2022/05/04 07:01:22;;;;;;;6.97;5.32;;;;;;;13.60;76.45;96269.72;4985516;28;20057;-76
2022/05/04 07:03:48;;;;;;;7.20;5.00;;;;;;;13.64;76.16;96267.91;4988569;28;20057;-77
2022/05/04 07:06:15;;;;;;;7.75;5.13;;;;;;;13.59;76.04;96276.34;4992616;28;20058;-77
2022/05/04 07:08:42;;;;;;;8.38;5.43;;;;;;;13.71;75.92;96273.63;4995020;28;20283;-77
2022/05/04 07:11:08;;;;;;;6.50;4.82;;;;;;;13.61;75.74;96274.03;4991033;28;20050;-77
2022/05/04 07:13:34;;;;;;;6.63;5.07;;;;;;;13.69;76.51;96267.69;4985967;28;20073;-77
2022/05/04 07:16:03;;;;;;;5.30;4.47;;;;;;;13.86;76.34;96268.63;4986665;28;20077;-76
2022/05/04 07:18:29;;;;;;;6.68;4.55;;;;;;;13.86;74.98;96279.56;4985826;28;20867;-77
2022/05/04 07:20:56;;;;;;;7.90;5.18;;;;;;;13.97;75.43;96264.28;4987310;28;20042;-76
2022/05/04 07:23:22;;;;;;;6.45;4.70;;;;;;;14.01;74.96;96266.00;4985961;28;20046;-77
2022/05/04 07:25:49;;;;;;;5.82;4.35;;;;;;;14.07;74.53;96263.84;4986895;28;20058;-77
2022/05/04 07:28:15;;;;;;;7.35;4.22;;;;;;;14.16;74.96;96266.47;4985826;28;20046;-78
2022/05/04 07:30:41;;;;;;;5.40;4.50;;;;;;;14.07;73.12;96263.84;4986149;28;20046;-77
2022/05/04 07:33:09;;;;;;;9.10;4.45;;;;;;;14.03;74.17;96268.38;4985625;28;20497;-77
2022/05/04 07:35:36;;;;;;;7.70;4.90;;;;;;;14.14;74.38;96269.53;4985808;28;20063;-77
2022/05/04 07:38:02;;;;;;;6.22;4.40;;;;;;;14.19;74.44;96274.78;4985689;28;20453;-77
2022/05/04 07:43:13;;;;;;;6.65;4.10;;;;;;;14.40;74.36;96273.84;4985277;28;20169;-77
2022/05/04 07:45:39;;;;;;;6.78;3.72;;;;;;;14.34;72.07;96274.06;4985637;28;20046;-77
2022/05/04 07:48:06;;;;;;;5.93;4.28;;;;;;;14.41;72.91;96281.75;4987127;28;20046;-77
2022/05/04 07:50:34;;;;;;;5.10;3.60;;;;;;;14.51;72.74;96283.22;4986378;28;20057;-79
2022/05/04 07:53:02;;;;;;;4.65;3.60;;;;;;;14.65;73.29;96285.59;4986291;28;20138;-77
2022/05/04 07:55:30;;;;;;;7.53;3.95;;;;;;;14.66;72.01;96290.72;4985591;28;20057;-77
2022/05/04 07:57:57;;;;;;;5.70;3.17;;;;;;;14.70;71.50;96290.84;4985865;28;20047;-77
2022/05/04 08:05:53;;;;;;;5.28;3.47;;;;;;;15.40;69.92;96296.78;4986759;28;20116;-77
2022/05/04 08:08:20;;;;;;;4.32;3.38;;;;;;;15.58;69.68;96291.78;4985396;28;20104;-77
2022/05/04 08:10:46;;;;;;;5.25;3.13;;;;;;;15.68;67.60;96293.25;4987531;28;20042;-78
2022/05/04 08:13:13;;;;;;;5.10;3.30;;;;;;;15.86;67.52;96297.22;4986141;28;20049;-77
2022/05/04 08:15:39;;;;;;;4.95;3.63;;;;;;;15.93;65.08;96296.63;4985879;28;20038;-77
2022/05/04 08:18:06;;;;;;;4.60;3.25;;;;;;;15.59;65.93;96293.38;4984900;28;20070;-78
2022/05/04 08:20:33;;;;;;;5.72;3.17;;;;;;;15.59;67.85;96298.84;4990061;28;20602;-77
2022/05/04 08:23:01;;;;;;;6.00;3.38;;;;;;;15.82;68.83;96299.91;4992464;28;20053;-77
2022/05/04 08:25:27;;;;;;;5.13;3.50;;;;;;;15.91;66.58;96306.00;4991043;28;20053;-78
2022/05/04 08:27:54;;;;;;;5.05;3.33;;;;;;;15.94;64.81;96299.03;4992835;28;20046;-78
2022/05/04 08:30:21;;;;;;;4.97;3.13;;;;;;;15.86;65.97;96300.78;4984589;28;20563;-75
2022/05/04 08:32:48;;;;;;;4.80;3.38;;;;;;;16.13;67.92;96301.03;4991457;28;20082;-78
2022/05/04 08:35:14;;;;;;;5.38;3.03;;;;;;;16.39;64.98;96306.81;4990215;28;20050;-78
2022/05/04 08:37:41;;;;;;;4.00;2.65;;;;;;;16.53;65.18;96309.06;4990231;28;20069;-77
2022/05/04 08:40:11;;;;;;;4.28;3.15;;;;;;;16.62;61.95;96303.41;4991419;28;20054;-77
2022/05/04 08:42:41;;;;;;;3.13;2.67;;;;;;;16.79;60.45;96302.22;4990895;28;20042;-77
2022/05/04 08:45:11;;;;;;;6.72;2.80;;;;;;;16.83;62.25;96312.16;4955525;28;20121;-77
2022/05/04 08:47:39;;;;;;;3.58;3.03;;;;;;;16.76;62.77;96301.00;4952461;28;20131;-77
2022/05/04 08:50:09;;;;;;;4.15;2.92;;;;;;;16.42;62.08;96308.81;4953145;28;20050;-76
2022/05/04 08:52:38;;;;;;;3.97;2.88;;;;;;;16.39;63.44;96298.56;4952663;28;20055;-78
2022/05/04 08:55:05;;;;;;;4.82;3.30;;;;;;;16.63;63.56;96307.72;4953086;28;20054;-77
2022/05/04 08:57:33;;;;;;;5.35;3.28;;;;;;;16.93;63.97;96300.59;4954086;28;20075;-77
2022/05/04 08:59:59;;;;;;;5.50;3.25;;;;;;;17.14;61.62;96302.19;4956957;28;20043;-81
2022/05/04 09:02:26;;;;;;;3.85;2.92;;;;;;;17.59;65.56;96292.44;4958665;28;20051;-77
2022/05/04 09:04:52;;;;;;;4.57;3.10;;;;;;;17.80;61.47;96294.81;4955363;28;20697;-76
2022/05/04 09:07:23;;;;;;;3.90;2.30;;;;;;;18.02;60.49;96305.09;4953358;28;20058;-77
2022/05/04 09:09:49;;;;;;;5.13;2.83;;;;;;;18.07;54.71;96293.75;4952949;28;20051;-77
2022/05/04 09:12:16;;;;;;;4.90;2.25;;;;;;;18.08;53.97;96292.59;4953725;28;20098;-78
2022/05/04 09:14:45;;;;;;;3.25;2.05;;;;;;;18.10;54.63;96286.69;4971738;28;20558;-77
2022/05/04 09:17:12;;;;;;;4.10;2.30;;;;;;;18.30;58.74;96290.97;4972183;28;20054;-78
2022/05/04 09:19:39;;;;;;;3.38;2.22;;;;;;;18.32;51.55;96291.38;4971859;28;20142;-78
2022/05/04 09:22:16;;;;;;;4.88;2.20;;;;;;;18.48;54.95;96294.81;4980681;28;20744;-77
2022/05/04 09:24:44;;;;;;;3.45;2.28;;;;;;;18.61;53.81;96291.84;4992036;28;20054;-78
2022/05/04 09:27:10;;;;;;;3.55;2.45;;;;;;;18.82;55.85;96285.88;4990560;28;20078;-77
2022/05/04 09:29:39;;;;;;;7.13;3.05;;;;;;;19.10;53.70;96285.44;4992169;28;20042;-77
2022/05/04 09:32:15;;;;;;;3.40;2.45;;;;;;;19.24;51.45;96277.34;4988030;28;20100;-78
2022/05/04 09:34:42;;;;;;;5.43;2.28;;;;;;;18.85;51.07;96280.41;4989501;28;20046;-78
2022/05/04 09:45:53;;;;;;;2.78;2.22;;;;;;;19.99;51.14;96270.69;4952166;28;20056;-78
2022/05/04 09:48:30;;;;;;;3.83;2.58;;;;;;;20.08;48.78;96273.91;4988852;28;20494;-77
2022/05/04 09:51:01;;;;;;;3.80;2.38;;;;;;;20.12;46.32;96268.41;4988754;28;20069;-77
2022/05/04 09:53:27;;;;;;;3.13;2.22;;;;;;;20.21;48.36;96266.13;4988672;28;20490;-78
2022/05/04 09:55:56;;;;;;;4.95;2.47;;;;;;;20.06;49.31;96265.22;4988769;28;20046;-78
2022/05/04 09:58:24;;;;;;;3.35;2.20;;;;;;;20.25;51.78;96271.66;4988051;28;20073;-78
2022/05/04 10:00:51;;;;;;;2.70;2.08;;;;;;;20.37;46.22;96267.84;4989394;28;20101;-78
2022/05/04 10:03:19;;;;;;;5.65;2.55;;;;;;;20.48;44.67;96263.19;4987717;28;20202;-78
2022/05/04 10:05:47;;;;;;;4.57;2.45;;;;;;;20.52;45.52;96270.34;4989203;28;20053;-78
2022/05/04 10:08:14;;;;;;;5.82;2.30;;;;;;;20.48;45.96;96268.72;4978797;28;20426;-78
2022/05/04 10:10:41;;;;;;;3.35;2.47;;;;;;;20.19;45.38;96267.69;4987008;28;20046;-78
2022/05/04 10:13:08;;;;;;;8.23;2.65;;;;;;;20.14;47.02;96251.44;4986746;28;20051;-79
2022/05/04 10:15:37;;;;;;;5.95;2.78;;;;;;;20.36;49.56;96244.91;4987865;28;20561;-77
2022/05/04 10:18:08;;;;;;;3.30;2.50;;;;;;;20.53;50.69;96246.25;4987912;28;20576;-78
2022/05/04 10:20:39;;;;;;;3.25;1.85;;;;;;;20.81;48.22;96234.53;4990564;28;20054;-78
2022/05/04 10:23:13;;;;;;;4.38;2.60;;;;;;;20.59;44.80;96226.13;4992118;28;20042;-77
2022/05/04 10:25:42;;;;;;;5.50;2.10;;;;;;;20.44;47.69;96241.00;4994373;28;20058;-78
2022/05/04 10:28:11;;;;;;;3.75;2.20;;;;;;;20.47;46.49;96229.22;4993026;28;20050;-78
2022/05/04 10:30:46;;;;;;;2.75;2.00;;;;;;;20.50;47.96;96231.19;4991000;28;20049;-77
2022/05/04 10:33:14;;;;;;;4.35;2.28;;;;;;;20.58;47.68;96224.53;4990695;28;20149;-78
2022/05/04 10:35:45;;;;;;;4.82;2.35;;;;;;;20.48;50.21;96228.03;4988788;28;20049;-78
2022/05/04 10:38:18;;;;;;;5.93;2.50;;;;;;;20.64;49.95;96219.44;4991987;28;20046;-77
2022/05/04 10:40:47;;;;;;;3.35;2.35;;;;;;;20.83;48.41;96215.59;4989281;28;20046;-78
2022/05/04 10:43:16;;;;;;;4.15;2.63;;;;;;;20.26;46.11;96206.94;4985518;28;20050;-78
2022/05/04 10:45:45;;;;;;;4.57;2.42;;;;;;;20.44;48.44;96207.81;4988245;28;20078;-78
2022/05/04 10:48:25;;;;;;;2.72;2.20;;;;;;;20.79;48.24;96200.94;4986814;28;20128;-78
2022/05/04 10:50:57;;;;;;;3.53;2.30;;;;;;;20.79;47.31;96200.94;4988414;28;20486;-78
2022/05/04 10:53:43;;;;;;;4.63;2.23;;;;;;;20.76;49.72;96198.94;4987646;28;20046;-77
2022/05/04 10:56:12;;;;;;;6.18;2.45;;;;;;;20.90;49.14;96196.25;4987175;28;20046;-78
2022/05/04 10:58:43;;;;;;;3.53;2.20;;;;;;;20.84;45.87;96197.81;4989908;28;20038;-77
2022/05/04 11:01:12;;;;;;;2.95;2.22;;;;;;;20.43;46.34;96194.38;4995098;28;20049;-77
2022/05/04 11:03:50;;;;;;;3.05;1.90;;;;;;;20.22;46.65;96197.81;4999100;28;20054;-77
2022/05/04 11:06:28;;;;;;;3.45;2.17;;;;;;;19.86;46.50;96193.97;4987572;28;20043;-78
2022/05/04 11:08:59;;;;;;;4.38;2.47;;;;;;;19.70;45.82;96191.47;4988919;28;20046;-77
2022/05/04 11:11:31;;;;;;;3.13;2.00;;;;;;;19.33;46.48;96189.50;4986960;28;20077;-78
2022/05/04 11:13:58;;;;;;;2.70;2.17;;;;;;;19.04;46.20;96189.19;4974568;28;20046;-78
2022/05/04 11:16:28;;;;;;;3.47;2.30;;;;;;;18.83;46.78;96191.69;4967606;28;20399;-78
2022/05/04 11:18:55;;;;;;;4.00;2.05;;;;;;;18.91;48.94;96187.84;4966817;28;20045;-77
2022/05/04 11:21:22;;;;;;;3.67;2.70;;;;;;;18.65;47.25;96183.16;4967108;28;20082;-78
2022/05/04 11:23:50;;;;;;;3.80;2.30;;;;;;;18.67;48.69;96183.56;4967006;28;20065;-78
2022/05/04 11:26:19;;;;;;;4.38;2.78;;;;;;;18.57;48.57;96175.97;4967563;28;20054;-78
2022/05/04 11:28:46;;;;;;;4.07;2.80;;;;;;;18.65;51.17;96182.38;4966998;28;20074;-77
2022/05/04 11:31:12;;;;;;;4.40;3.10;;;;;;;18.60;51.53;96174.44;4968325;28;20073;-78
2022/05/04 11:33:41;;;;;;;3.90;2.70;;;;;;;18.71;50.19;96175.38;4967402;28;20539;-78
2022/05/04 11:36:07;;;;;;;4.38;3.08;;;;;;;18.64;51.30;96178.03;4966124;28;20042;-78
2022/05/04 11:38:34;;;;;;;3.80;2.83;;;;;;;18.67;52.60;96171.75;4967108;28;20050;-77
2022/05/04 11:41:02;;;;;;;3.83;2.60;;;;;;;18.72;52.16;96169.47;4966909;28;20042;-76
2022/05/04 11:43:33;;;;;;;5.43;2.63;;;;;;;19.00;54.17;96171.81;4975001;28;20057;-76
2022/05/04 11:46:04;;;;;;;6.20;4.10;;;;;;;19.11;50.60;96171.13;4985194;28;20117;-76
2022/05/04 11:48:31;;;;;;;5.43;3.60;;;;;;;19.25;50.43;96166.53;4985911;28;20093;-76
2022/05/04 11:50:57;;;;;;;6.28;4.40;;;;;;;19.67;52.36;96164.59;4987076;28;20083;-77
2022/05/04 11:53:24;;;;;;;6.97;4.20;;;;;;;19.68;48.89;96163.41;4986136;28;20081;-78
2022/05/04 11:55:51;;;;;;;5.07;4.10;;;;;;;19.35;47.61;96164.28;4985638;28;20054;-77
2022/05/04 11:58:17;;;;;;;5.22;4.10;;;;;;;19.32;47.31;96165.84;4985274;28;20054;-78